Startpagina
METAR-TAF:

METAR-TAF

Vliegvelden :

Brussel, België

Brussels Airport. Zaventem

breedte: 50-54N, lengte: 004-32E, hoogte: 55 m

Actueel weer

Dit bericht is 29 minuten geleden gemaakt, om 18:20 UTC
Wind 10 kt uit het westen
Temperatuur 20°C
Vochtigheid 46%
Druk 1007 hPa
Zicht 10 km of meer
geen wolken onder 1500 m en geen cumulonimbus

METAR: EBBR 271820Z 26010KT CAVOK 20/08 Q1007 NOSIG

Tijdstip: 20:49 (18:49 UTC)

Verwachting

Dit bericht is 1 uur en het 29 minuten geleden gemaakt, om 17:20 UTC
Verwachting geldig van 27 om 18 UTC tot 28 om 24 UTC
Wind 7 kt uit het westzuidwesten
Zicht 10 km of meer
Weinig wolken op 4500 ft
Kans 30% :
Tijdelijke
van 28 om 09 UTC tot 28 om 15 UTC
Wind 15 kt uit het westzuidwesten met uitschieters tot 25 kt

TAF: EBBR 271720Z 2718/2824 25007KT 9999 FEW045 PROB30 TEMPO 2809/2815 24015G25KT

Waarnemingen en weersverwachtingen van meer dan 4000 vliegvelden (METAR en TAF).

De beschikbare stations zijn de gele en rode punten op de kaart.

Ga met uw muis naar het station om de naam te zien.

Klik dan om waarnemingen en weersverwachtingen te zien.

kaart wijzigen: klik op de groene knoppen met een zwart kruis om in te zoomen, op de groene knop met een streepje om uit te zoomen of op de groene pijlen voor aangrenzende kaarten.


METAR-TAF: